Time;durP1;ratioP1;P1;durP2;ratioP2;P2;SDS_P1;SDS_P2;PMS_P1;PMS_P2;Temp;Humidity;BMP_temperature;BMP_pressure;BME280_temperature;BME280_humidity;BME280_pressure;Samples;Min_cycle;Max_cycle;Signal;HPM_P1;HPM_P2
2021/04/22 00:00:39;;;;;;;4.47;2.42;;;24.00;56.10;;;;;;5075954;28;20882;-79
2021/04/22 00:03:06;;;;;;;4.97;2.67;;;23.50;54.20;;;;;;5081614;28;20408;-79
2021/04/22 00:05:40;;;;;;;4.63;2.60;;;23.50;54.90;;;;;;5084703;28;20521;-79
2021/04/22 00:08:09;;;;;;;3.95;2.63;;;21.50;56.80;;;;;;5084628;28;20387;-79
2021/04/22 00:10:45;;;;;;;6.25;2.90;;;20.10;62.70;;;;;;5085294;28;20381;-78
2021/04/22 00:13:16;;;;;;;3.50;2.58;;;18.60;63.40;;;;;;5071443;28;20527;-79
2021/04/22 00:15:43;;;;;;;5.95;2.83;;;18.00;65.50;;;;;;5072508;28;20848;-79
2021/04/22 00:18:11;;;;;;;6.07;2.97;;;17.80;66.20;;;;;;5072012;28;21910;-79
2021/04/22 00:20:38;;;;;;;3.90;2.40;;;18.20;66.40;;;;;;5073664;28;20470;-79
2021/04/22 00:23:07;;;;;;;5.13;2.55;;;18.10;66.20;;;;;;5072021;28;20880;-79
2021/04/22 00:25:34;;;;;;;4.68;2.08;;;17.70;68.00;;;;;;5072685;28;20426;-79
2021/04/22 00:28:03;;;;;;;5.70;2.20;;;17.10;68.80;;;;;;5073583;28;20394;-79
2021/04/22 00:30:31;;;;;;;5.50;2.42;;;16.70;68.90;;;;;;5092050;28;20417;-79
2021/04/22 00:32:58;;;;;;;4.95;2.08;;;16.50;72.00;;;;;;5112230;28;20367;-79
2021/04/22 00:35:25;;;;;;;3.85;1.85;;;16.50;70.30;;;;;;5099558;28;20369;-79
2021/04/22 00:37:52;;;;;;;7.05;2.08;;;16.50;71.90;;;;;;5100946;28;20470;-79
2021/04/22 00:40:24;;;;;;;4.15;1.90;;;16.70;70.10;;;;;;5092469;28;20382;-79
2021/04/22 00:42:52;;;;;;;2.35;1.52;;;17.20;70.70;;;;;;5082802;28;20401;-79
2021/04/22 00:45:20;;;;;;;4.70;1.40;;;17.80;70.10;;;;;;5088758;28;20376;-79
2021/04/22 00:47:47;;;;;;;4.15;1.80;;;17.80;67.00;;;;;;5076290;28;20400;-79
2021/04/22 00:50:17;;;;;;;3.50;1.38;;;17.60;67.90;;;;;;5082772;28;20750;-80
2021/04/22 00:52:45;;;;;;;3.25;1.50;;;17.70;65.80;;;;;;5080343;28;20397;-79
2021/04/22 00:55:13;;;;;;;2.28;1.48;;;17.70;65.60;;;;;;5079312;28;20862;-80
2021/04/22 00:57:40;;;;;;;2.63;1.50;;;18.50;65.50;;;;;;5080602;28;20937;-79
2021/04/22 01:00:22;;;;;;;3.70;1.80;;;19.30;63.50;;;;;;5091846;28;20485;-78
2021/04/22 01:02:50;;;;;;;4.63;1.80;;;19.30;63.50;;;;;;5085378;28;20898;-79
2021/04/22 01:05:39;;;;;;;4.85;2.03;;;18.80;65.30;;;;;;5090273;28;20388;-80
2021/04/22 01:08:10;;;;;;;4.10;1.73;;;18.00;64.10;;;;;;5096792;28;20394;-79
2021/04/22 01:10:37;;;;;;;4.82;1.80;;;17.60;68.30;;;;;;5074106;28;20386;-79
2021/04/22 01:13:04;;;;;;;3.13;1.60;;;17.40;68.80;;;;;;5072021;28;20386;-79
2021/04/22 01:15:32;;;;;;;4.88;1.92;;;17.30;69.20;;;;;;5087358;28;20859;-80
2021/04/22 01:17:59;;;;;;;5.00;2.10;;;17.10;70.70;;;;;;5071014;28;22030;-79
2021/04/22 01:20:32;;;;;;;6.97;2.60;;;17.00;69.70;;;;;;5070959;28;20374;-79
2021/04/22 01:23:02;;;;;;;4.82;2.28;;;16.90;69.60;;;;;;5071515;28;20412;-79
2021/04/22 01:25:32;;;;;;;5.03;2.45;;;16.80;70.00;;;;;;5088635;28;20536;-79
2021/04/22 01:28:00;;;;;;;4.07;2.13;;;16.70;69.40;;;;;;5089550;28;20449;-78
2021/04/22 01:30:31;;;;;;;3.95;1.95;;;16.70;71.40;;;;;;5097677;28;20424;-78
2021/04/22 01:32:59;;;;;;;3.92;1.98;;;16.80;69.20;;;;;;5095329;28;20396;-79
2021/04/22 01:35:32;;;;;;;3.38;1.55;;;16.80;69.30;;;;;;5070652;28;20793;-81
2021/04/22 01:38:00;;;;;;;4.07;1.60;;;16.90;70.30;;;;;;5073391;28;20399;-80
2021/04/22 01:40:28;;;;;;;2.92;1.63;;;16.90;70.00;;;;;;5078227;28;20416;-80
2021/04/22 01:42:56;;;;;;;2.63;1.40;;;16.80;69.80;;;;;;5070281;28;20400;-79
2021/04/22 01:45:23;;;;;;;2.70;1.52;;;16.80;68.60;;;;;;5083536;28;20399;-80
2021/04/22 01:47:52;;;;;;;3.40;1.20;;;16.90;69.30;;;;;;5089293;28;20553;-79
2021/04/22 01:50:25;;;;;;;2.85;1.33;;;16.80;69.40;;;;;;5090564;28;20380;-79
2021/04/22 01:52:52;;;;;;;4.07;1.23;;;16.90;69.00;;;;;;5084296;28;20383;-79
2021/04/22 01:55:40;;;;;;;3.20;1.30;;;16.80;68.60;;;;;;5088240;28;20380;-80
2021/04/22 01:58:10;;;;;;;3.53;1.40;;;16.90;68.80;;;;;;5076103;28;20818;-80
2021/04/22 02:00:44;;;;;;;3.15;1.50;;;16.80;68.90;;;;;;5078843;28;20392;-79
2021/04/22 02:03:12;;;;;;;2.88;1.23;;;16.90;67.70;;;;;;5085350;28;20415;-79
2021/04/22 02:05:40;;;;;;;2.55;1.20;;;16.90;67.10;;;;;;5079745;28;20378;-80
2021/04/22 02:08:08;;;;;;;2.08;1.23;;;16.90;69.10;;;;;;5084729;28;20964;-80
2021/04/22 02:10:37;;;;;;;4.53;1.02;;;16.90;67.40;;;;;;5081340;28;20387;-79
2021/04/22 02:13:05;;;;;;;4.03;1.27;;;16.90;67.70;;;;;;5100898;28;20417;-80
2021/04/22 02:15:32;;;;;;;5.83;1.20;;;16.90;66.20;;;;;;5090572;28;20474;-80
2021/04/22 02:18:00;;;;;;;2.33;1.10;;;16.90;66.70;;;;;;5069817;28;20400;-79
2021/04/22 02:20:27;;;;;;;5.00;1.20;;;17.00;67.50;;;;;;5070051;28;20374;-79
2021/04/22 02:22:55;;;;;;;5.05;1.15;;;17.10;67.00;;;;;;5087564;28;20403;-80
2021/04/22 02:25:25;;;;;;;2.55;1.23;;;17.10;67.00;;;;;;5091544;28;20467;-80
2021/04/22 02:27:52;;;;;;;3.03;1.30;;;17.20;66.70;;;;;;5083751;28;20386;-80
2021/04/22 02:30:33;;;;;;;5.40;1.20;;;17.30;63.40;;;;;;5072352;28;20380;-80
2021/04/22 02:33:03;;;;;;;2.25;1.20;;;17.30;64.60;;;;;;5075586;28;20405;-79
2021/04/22 02:35:33;;;;;;;4.95;1.65;;;17.30;63.50;;;;;;5069831;28;20872;-79
2021/04/22 02:38:03;;;;;;;4.13;1.38;;;17.30;63.50;;;;;;5086887;28;20763;-80
2021/04/22 02:40:31;;;;;;;4.13;1.60;;;17.30;64.30;;;;;;5089502;28;20384;-79
2021/04/22 02:42:59;;;;;;;5.55;1.90;;;17.30;64.60;;;;;;5089184;28;20392;-79
2021/04/22 02:45:29;;;;;;;4.93;1.70;;;17.40;64.00;;;;;;5082860;28;20382;-79
2021/04/22 02:47:57;;;;;;;4.25;2.10;;;17.40;64.40;;;;;;5069297;28;20390;-79
2021/04/22 02:50:27;;;;;;;7.28;2.00;;;17.50;63.90;;;;;;5087858;28;20826;-79
2021/04/22 02:52:54;;;;;;;10.90;2.35;;;17.60;63.60;;;;;;5089014;28;20376;-79
2021/04/22 02:55:22;;;;;;;2.10;1.77;;;17.70;64.30;;;;;;5089326;28;20543;-79
2021/04/22 02:57:49;;;;;;;7.22;2.70;;;17.70;64.50;;;;;;5089437;28;20368;-79
2021/04/22 03:00:19;;;;;;;4.07;2.40;;;17.80;64.50;;;;;;5088546;28;20396;-79
2021/04/22 03:02:47;;;;;;;3.78;2.33;;;17.90;64.80;;;;;;5088241;28;20408;-79
2021/04/22 03:05:17;;;;;;;5.20;2.72;;;17.90;63.70;;;;;;5088667;28;20384;-80
2021/04/22 03:07:45;;;;;;;5.85;3.65;;;17.90;64.60;;;;;;5089002;28;20357;-79
2021/04/22 03:10:15;;;;;;;6.95;3.80;;;18.00;63.90;;;;;;5087908;28;20419;-79
2021/04/22 03:12:42;;;;;;;7.93;5.55;;;18.00;65.50;;;;;;5088494;28;20380;-79
2021/04/22 03:15:10;;;;;;;9.77;6.37;;;18.00;64.40;;;;;;5089351;28;20460;-79
2021/04/22 03:17:37;;;;;;;11.37;4.93;;;18.10;66.90;;;;;;5081282;28;20464;-80
2021/04/22 03:20:06;;;;;;;8.85;5.25;;;18.30;64.50;;;;;;5067441;28;20366;-80
2021/04/22 03:22:33;;;;;;;9.63;5.80;;;18.40;64.90;;;;;;5101821;28;20398;-79
2021/04/22 03:25:04;;;;;;;9.48;4.47;;;18.40;63.90;;;;;;5109121;28;20374;-79
2021/04/22 03:27:31;;;;;;;8.80;5.47;;;18.20;64.30;;;;;;5109234;28;20382;-79
2021/04/22 03:29:59;;;;;;;11.85;7.05;;;18.20;63.90;;;;;;5108416;28;20386;-80
2021/04/22 03:32:27;;;;;;;14.25;8.00;;;18.10;66.20;;;;;;5109001;28;20742;-79
2021/04/22 03:34:54;;;;;;;14.02;9.85;;;18.10;68.30;;;;;;5106563;28;20378;-80
2021/04/22 03:37:21;;;;;;;13.73;10.23;;;18.30;66.60;;;;;;5089740;28;20853;-80
2021/04/22 03:39:48;;;;;;;19.50;10.83;;;18.50;64.60;;;;;;5088839;28;20483;-80
2021/04/22 03:42:17;;;;;;;16.98;9.60;;;18.40;65.90;;;;;;5088528;28;20396;-80
2021/04/22 03:44:45;;;;;;;22.20;10.90;;;18.30;63.50;;;;;;5088928;28;20375;-79
2021/04/22 03:47:12;;;;;;;19.93;13.13;;;18.20;65.40;;;;;;5087322;28;20380;-79
2021/04/22 03:49:39;;;;;;;16.40;11.73;;;18.30;66.10;;;;;;5071416;28;20408;-80
2021/04/22 03:52:07;;;;;;;21.10;13.68;;;18.40;66.00;;;;;;5084427;28;20433;-79
2021/04/22 03:54:35;;;;;;;24.50;15.35;;;18.50;64.80;;;;;;5088663;28;20371;-80
2021/04/22 03:57:03;;;;;;;20.60;12.80;;;18.60;64.60;;;;;;5087116;28;20487;-80
2021/04/22 03:59:31;;;;;;;21.55;13.48;;;18.70;63.30;;;;;;5087146;28;20373;-80
2021/04/22 04:01:58;;;;;;;23.88;13.98;;;18.70;65.80;;;;;;5087288;28;20431;-80
2021/04/22 04:04:25;;;;;;;21.63;14.95;;;18.70;67.30;;;;;;5090119;28;20387;-80
2021/04/22 04:06:53;;;;;;;23.30;15.27;;;18.60;63.70;;;;;;5104854;28;20463;-80
2021/04/22 04:09:21;;;;;;;22.25;12.85;;;18.50;63.90;;;;;;5082408;28;20393;-79
2021/04/22 04:11:48;;;;;;;17.77;11.20;;;18.50;64.30;;;;;;5085483;28;20844;-80
2021/04/22 04:14:15;;;;;;;14.75;11.05;;;18.50;65.20;;;;;;5083367;28;20379;-80
2021/04/22 04:16:42;;;;;;;16.15;10.25;;;18.50;64.80;;;;;;5105644;28;20372;-80
2021/04/22 04:19:09;;;;;;;14.65;9.73;;;18.50;65.70;;;;;;5087631;28;20502;-80
2021/04/22 04:21:36;;;;;;;14.98;8.80;;;18.40;65.40;;;;;;5081016;28;20388;-81
2021/04/22 04:24:03;;;;;;;13.52;8.75;;;18.30;65.00;;;;;;5068032;28;20449;-80
2021/04/22 04:26:30;;;;;;;14.48;7.90;;;18.30;65.10;;;;;;5067535;28;20406;-80
2021/04/22 04:28:57;;;;;;;16.52;7.50;;;18.30;64.20;;;;;;5075469;28;20405;-80
2021/04/22 04:31:24;;;;;;;15.65;6.32;;;18.30;64.10;;;;;;5068875;28;20378;-80
2021/04/22 04:33:52;;;;;;;9.87;6.00;;;18.30;64.20;;;;;;5086168;28;20870;-80
2021/04/22 04:36:19;;;;;;;12.00;6.30;;;18.30;64.60;;;;;;5087335;28;20515;-80
2021/04/22 04:38:46;;;;;;;8.13;4.70;;;18.30;65.50;;;;;;5087451;28;20409;-80
2021/04/22 04:41:13;;;;;;;9.35;4.78;;;18.30;63.20;;;;;;5088504;28;20380;-80
2021/04/22 04:43:40;;;;;;;9.40;4.50;;;18.20;63.20;;;;;;5089287;28;20414;-79
2021/04/22 04:46:07;;;;;;;8.07;3.70;;;18.20;64.90;;;;;;5091686;28;20380;-79
2021/04/22 04:48:34;;;;;;;6.82;3.17;;;18.20;65.40;;;;;;5090959;28;20384;-78
2021/04/22 04:51:01;;;;;;;5.60;3.20;;;18.40;63.30;;;;;;5091335;28;20381;-79
2021/04/22 04:53:28;;;;;;;6.68;2.42;;;18.30;65.60;;;;;;5091611;28;20377;-79
2021/04/22 04:55:55;;;;;;;5.05;1.42;;;18.30;63.80;;;;;;5072291;28;20496;-79
2021/04/22 04:58:23;;;;;;;5.10;0.93;;;18.30;63.20;;;;;;5071277;28;20374;-79
2021/04/22 05:00:50;;;;;;;6.53;0.98;;;18.10;62.10;;;;;;5071047;28;20385;-79
2021/04/22 05:03:17;;;;;;;2.80;0.98;;;17.90;63.10;;;;;;5070988;28;20434;-79
2021/04/22 05:05:44;;;;;;;4.00;1.10;;;17.80;65.60;;;;;;5071098;28;20374;-80
2021/04/22 05:08:11;;;;;;;5.70;1.00;;;17.50;63.50;;;;;;5074878;28;20746;-79
2021/04/22 05:10:38;;;;;;;3.15;0.75;;;17.50;64.20;;;;;;5090743;28;20437;-78
2021/04/22 05:13:05;;;;;;;4.10;0.85;;;17.40;64.90;;;;;;5089967;28;20411;-79
2021/04/22 05:15:32;;;;;;;6.55;0.90;;;17.30;63.80;;;;;;5090679;28;20376;-79
2021/04/22 05:17:59;;;;;;;4.60;1.05;;;17.20;65.20;;;;;;5090850;28;20376;-78
2021/04/22 05:20:26;;;;;;;2.97;0.80;;;17.20;66.30;;;;;;5091143;28;20379;-79
2021/04/22 05:22:53;;;;;;;2.72;0.90;;;17.10;68.70;;;;;;5077476;28;20424;-78
2021/04/22 05:25:20;;;;;;;2.08;0.70;;;17.20;65.00;;;;;;5070738;28;20374;-78
2021/04/22 05:27:47;;;;;;;3.53;0.80;;;17.20;64.90;;;;;;5077676;28;20372;-80
2021/04/22 05:30:14;;;;;;;5.65;1.08;;;17.10;63.50;;;;;;5090859;28;20430;-78
2021/04/22 05:32:42;;;;;;;6.28;1.10;;;17.10;64.80;;;;;;5088752;28;20385;-78
2021/04/22 05:35:10;;;;;;;4.00;0.80;;;17.00;64.40;;;;;;5091083;28;20418;-78
2021/04/22 05:37:37;;;;;;;4.63;0.80;;;17.00;66.40;;;;;;5090026;28;20411;-78
2021/04/22 05:40:05;;;;;;;2.97;0.80;;;17.00;65.50;;;;;;5088360;28;20905;-78
2021/04/22 05:42:32;;;;;;;2.70;0.67;;;16.90;66.20;;;;;;5090400;28;20399;-78
2021/04/22 05:44:59;;;;;;;2.75;0.70;;;16.80;64.60;;;;;;5090934;28;20464;-78
2021/04/22 05:47:26;;;;;;;5.55;1.00;;;16.80;64.20;;;;;;5090785;28;20816;-79
2021/04/22 05:49:53;;;;;;;3.08;0.95;;;16.80;63.70;;;;;;5090733;28;20389;-79
2021/04/22 05:52:20;;;;;;;3.13;0.85;;;16.70;66.40;;;;;;5089674;28;20792;-80
2021/04/22 05:54:47;;;;;;;3.10;0.80;;;16.60;65.20;;;;;;5089102;28;20400;-80
2021/04/22 05:57:14;;;;;;;3.33;0.77;;;16.60;65.10;;;;;;5078681;28;20392;-79
2021/04/22 05:59:41;;;;;;;3.30;0.60;;;16.50;65.60;;;;;;5075555;28;20402;-79
2021/04/22 06:02:08;;;;;;;4.82;0.80;;;16.40;66.80;;;;;;5075506;28;20461;-80
2021/04/22 06:04:35;;;;;;;3.40;0.93;;;16.40;68.50;;;;;;5089538;28;20790;-80
2021/04/22 06:07:02;;;;;;;5.63;0.93;;;16.30;65.10;;;;;;5088024;28;20436;-80
2021/04/22 06:09:29;;;;;;;2.23;0.67;;;16.30;66.70;;;;;;5089277;28;20385;-80
2021/04/22 06:11:57;;;;;;;3.42;0.77;;;16.30;69.10;;;;;;5089624;28;20954;-80
2021/04/22 06:14:24;;;;;;;4.60;0.95;;;16.20;67.80;;;;;;5089840;28;20391;-78
2021/04/22 06:16:51;;;;;;;4.22;0.63;;;16.10;67.80;;;;;;5086234;28;20427;-80
2021/04/22 06:19:18;;;;;;;2.40;0.85;;;16.10;67.10;;;;;;5087868;28;20395;-80
2021/04/22 06:21:44;;;;;;;4.20;0.80;;;16.10;67.10;;;;;;5089455;28;20433;-80
2021/04/22 06:24:12;;;;;;;3.38;0.80;;;16.00;66.50;;;;;;5088734;28;20404;-80
2021/04/22 06:26:39;;;;;;;2.10;0.70;;;16.00;66.20;;;;;;5088262;28;20788;-79
2021/04/22 06:29:06;;;;;;;2.42;0.70;;;15.90;66.90;;;;;;5089125;28;20381;-80
2021/04/22 06:31:33;;;;;;;2.80;0.70;;;15.80;66.70;;;;;;5089736;28;20399;-80
2021/04/22 06:33:59;;;;;;;3.03;1.05;;;15.80;67.90;;;;;;5085939;28;20458;-78
2021/04/22 06:36:26;;;;;;;3.55;0.70;;;15.70;69.50;;;;;;5088752;28;20373;-79
2021/04/22 06:38:54;;;;;;;3.33;0.90;;;15.60;68.90;;;;;;5085847;28;20388;-79
2021/04/22 06:41:21;;;;;;;3.65;0.90;;;15.50;68.40;;;;;;5089559;28;20361;-80
2021/04/22 06:43:48;;;;;;;4.82;1.10;;;15.50;69.10;;;;;;5089089;28;20906;-79
2021/04/22 06:46:16;;;;;;;2.20;0.70;;;15.40;68.30;;;;;;5089828;28;20389;-80
2021/04/22 06:48:43;;;;;;;2.95;0.80;;;15.30;69.00;;;;;;5089224;28;20387;-79
2021/04/22 06:51:10;;;;;;;3.15;0.80;;;15.30;69.30;;;;;;5089100;28;20384;-80
2021/04/22 06:53:37;;;;;;;3.05;0.60;;;15.20;67.70;;;;;;5079561;28;20386;-79
2021/04/22 06:56:05;;;;;;;3.58;0.80;;;15.20;68.70;;;;;;5068952;28;20362;-79
2021/04/22 06:58:32;;;;;;;3.10;0.70;;;15.20;68.20;;;;;;5067785;28;20385;-79
2021/04/22 07:00:59;;;;;;;2.85;1.02;;;15.10;69.10;;;;;;5068405;28;20718;-79
2021/04/22 07:03:26;;;;;;;4.03;0.70;;;15.00;70.00;;;;;;5073625;28;20448;-79
2021/04/22 07:05:53;;;;;;;3.53;0.77;;;14.90;70.20;;;;;;5088163;28;20471;-79
2021/04/22 07:08:20;;;;;;;2.95;0.57;;;14.80;68.50;;;;;;5088852;28;20392;-79
2021/04/22 07:10:48;;;;;;;2.75;0.70;;;14.80;70.60;;;;;;5089003;28;20447;-79
2021/04/22 07:13:15;;;;;;;2.75;0.50;;;14.70;71.30;;;;;;5088939;28;20476;-78
2021/04/22 07:15:42;;;;;;;2.92;0.75;;;14.60;72.60;;;;;;5089115;28;20376;-80
2021/04/22 07:18:11;;;;;;;2.45;0.60;;;14.40;72.90;;;;;;5088701;28;20399;-80
2021/04/22 07:20:39;;;;;;;3.00;0.77;;;14.20;74.00;;;;;;5088898;28;20364;-79
2021/04/22 07:23:06;;;;;;;3.63;1.08;;;14.10;74.80;;;;;;5088479;28;20400;-80
2021/04/22 07:25:35;;;;;;;3.83;0.80;;;14.00;75.80;;;;;;5088704;28;20403;-80
2021/04/22 07:28:07;;;;;;;3.40;0.80;;;13.90;76.40;;;;;;5087577;28;20960;-80
2021/04/22 07:30:36;;;;;;;1.80;0.77;;;13.70;76.30;;;;;;5089381;28;20387;-80
2021/04/22 07:33:04;;;;;;;4.43;0.73;;;13.70;77.90;;;;;;5081718;28;20423;-80
2021/04/22 07:35:31;;;;;;;2.90;0.90;;;13.60;74.40;;;;;;5086884;28;20443;-79
2021/04/22 07:37:58;;;;;;;3.38;0.90;;;13.60;73.80;;;;;;5087827;28;20753;-79
2021/04/22 07:40:27;;;;;;;1.98;0.77;;;13.60;74.10;;;;;;5086925;28;20490;-80
2021/04/22 07:42:55;;;;;;;2.88;0.60;;;13.60;72.90;;;;;;5073214;28;20501;-80
2021/04/22 07:45:28;;;;;;;6.13;1.07;;;13.70;72.00;;;;;;5068856;28;20715;-79
2021/04/22 07:47:56;;;;;;;5.03;0.82;;;13.70;73.50;;;;;;5086885;28;20396;-80
2021/04/22 07:50:24;;;;;;;3.00;0.73;;;13.70;73.20;;;;;;5073998;28;20394;-79
2021/04/22 07:52:51;;;;;;;4.82;1.02;;;13.60;73.20;;;;;;5072954;28;20396;-78
2021/04/22 07:55:23;;;;;;;2.17;0.87;;;13.60;72.00;;;;;;5082443;28;20965;-80
2021/04/22 07:57:50;;;;;;;4.05;1.00;;;13.60;73.40;;;;;;5075233;28;20382;-80
2021/04/22 08:00:19;;;;;;;1.88;0.80;;;13.50;73.00;;;;;;5077345;28;20424;-79
2021/04/22 08:02:48;;;;;;;3.97;1.05;;;13.50;74.30;;;;;;5083732;28;20421;-78
2021/04/22 08:05:16;;;;;;;2.92;1.00;;;13.40;74.00;;;;;;5068930;28;21116;-77
2021/04/22 08:07:43;;;;;;;1.83;0.55;;;13.30;74.70;;;;;;5076689;28;20444;-78
2021/04/22 08:10:19;;;;;;;2.47;0.80;;;13.20;74.20;;;;;;5085528;28;20817;-78
2021/04/22 08:12:47;;;;;;;4.57;0.97;;;13.10;74.30;;;;;;5088138;28;20478;-78
2021/04/22 08:15:15;;;;;;;2.80;0.90;;;13.10;75.20;;;;;;5083783;28;20384;-78
2021/04/22 08:17:43;;;;;;;2.22;0.70;;;13.00;75.90;;;;;;5089072;28;20863;-79
2021/04/22 08:20:19;;;;;;;2.60;0.73;;;12.90;75.20;;;;;;5078185;28;20465;-78
2021/04/22 08:22:47;;;;;;;2.75;0.80;;;12.80;75.30;;;;;;5071952;28;20967;-78
2021/04/22 08:25:21;;;;;;;3.40;0.87;;;12.80;75.60;;;;;;5086790;28;20862;-78
2021/04/22 08:27:49;;;;;;;3.50;1.10;;;12.70;75.40;;;;;;5075783;28;21005;-79
2021/04/22 08:30:25;;;;;;;3.25;0.80;;;12.70;76.00;;;;;;5071702;28;20424;-78
2021/04/22 08:32:52;;;;;;;3.20;0.80;;;12.60;75.80;;;;;;5080761;28;20396;-79
2021/04/22 08:35:19;;;;;;;4.37;1.00;;;12.60;76.10;;;;;;5089854;28;20475;-79
2021/04/22 08:37:46;;;;;;;5.18;1.40;;;12.60;77.00;;;;;;5082658;28;20447;-79
2021/04/22 08:40:14;;;;;;;3.25;0.82;;;12.50;76.10;;;;;;5075919;28;20884;-79
2021/04/22 08:42:41;;;;;;;2.80;1.00;;;12.50;76.20;;;;;;5091844;28;20493;-79
2021/04/22 08:45:12;;;;;;;4.80;1.30;;;12.50;76.10;;;;;;5112266;28;20422;-79
2021/04/22 08:47:41;;;;;;;3.13;0.93;;;12.40;76.30;;;;;;5092713;28;20392;-78
2021/04/22 08:50:19;;;;;;;5.05;0.90;;;12.30;77.60;;;;;;5087043;28;20392;-79
2021/04/22 08:52:49;;;;;;;4.65;0.90;;;12.30;77.40;;;;;;5083238;28;20392;-79
2021/04/22 08:55:17;;;;;;;6.03;1.00;;;12.20;77.70;;;;;;5082194;28;20379;-79
2021/04/22 08:57:45;;;;;;;3.75;1.20;;;12.20;77.30;;;;;;5079349;28;20883;-79
2021/04/22 09:00:15;;;;;;;7.10;1.40;;;12.20;77.50;;;;;;5090689;28;20433;-78
2021/04/22 09:02:43;;;;;;;3.20;1.40;;;12.10;77.40;;;;;;5080942;28;20403;-78
2021/04/22 09:05:12;;;;;;;3.47;1.08;;;12.10;77.70;;;;;;5088846;28;20472;-78
2021/04/22 09:07:39;;;;;;;6.60;1.48;;;12.10;76.90;;;;;;5090215;28;20451;-79
2021/04/22 09:10:07;;;;;;;3.45;1.27;;;12.10;77.90;;;;;;5084838;28;20388;-79
2021/04/22 09:12:35;;;;;;;3.88;1.30;;;12.10;77.70;;;;;;5080049;28;20881;-79
2021/04/22 09:15:10;;;;;;;7.65;0.98;;;12.00;77.90;;;;;;5090143;28;20384;-78
2021/04/22 09:17:38;;;;;;;2.17;0.95;;;12.00;77.40;;;;;;5087948;28;20396;-79
2021/04/22 09:20:10;;;;;;;3.28;1.00;;;12.00;76.10;;;;;;5082775;28;20381;-78
2021/04/22 09:22:42;;;;;;;4.70;1.15;;;12.10;76.30;;;;;;5084808;28;20411;-78
2021/04/22 09:25:13;;;;;;;1.70;0.93;;;12.10;76.80;;;;;;5083720;28;20436;-79
2021/04/22 09:27:41;;;;;;;3.83;0.88;;;12.10;76.20;;;;;;5091851;28;20440;-78
2021/04/22 09:30:09;;;;;;;3.83;1.10;;;12.10;76.30;;;;;;5089508;28;20441;-78
2021/04/22 09:32:38;;;;;;;2.22;0.95;;;12.10;76.90;;;;;;5093090;28;20394;-78
2021/04/22 09:35:07;;;;;;;2.72;0.80;;;12.10;77.10;;;;;;5089721;28;20369;-79
2021/04/22 09:37:43;;;;;;;3.10;0.90;;;12.00;76.70;;;;;;5077106;28;20964;-78
2021/04/22 09:40:35;;;;;;;3.80;1.00;;;12.00;76.90;;;;;;5107382;28;20374;-78
2021/04/22 09:43:04;;;;;;;4.80;0.88;;;12.00;76.90;;;;;;5066160;28;20406;-78
2021/04/22 09:45:34;;;;;;;2.40;1.00;;;12.00;77.10;;;;;;5089563;28;20449;-78
2021/04/22 09:48:13;;;;;;;2.33;0.70;;;11.90;77.50;;;;;;5090654;28;21157;-79
2021/04/22 09:50:44;;;;;;;4.35;0.65;;;11.90;78.10;;;;;;5088736;28;20401;-78
2021/04/22 09:53:15;;;;;;;3.10;0.90;;;11.80;78.00;;;;;;5085366;28;20754;-79
2021/04/22 09:55:42;;;;;;;3.30;0.77;;;11.70;78.30;;;;;;5070409;28;20471;-78
2021/04/22 09:58:09;;;;;;;2.07;0.70;;;11.70;78.60;;;;;;5070598;28;20410;-78
2021/04/22 10:00:38;;;;;;;2.28;1.00;;;11.70;78.90;;;;;;5104720;28;20378;-78
2021/04/22 10:03:12;;;;;;;2.67;0.85;;;11.60;79.40;;;;;;5110530;28;20400;-78
2021/04/22 10:05:41;;;;;;;1.42;0.80;;;11.60;79.30;;;;;;5102992;28;20848;-79
2021/04/22 10:08:13;;;;;;;2.35;1.20;;;11.50;80.90;;;;;;5074904;28;20823;-78
2021/04/22 10:11:01;;;;;;;2.50;1.08;;;11.50;80.90;;;;;;5070039;28;20406;-78
2021/04/22 10:13:29;;;;;;;3.30;1.42;;;11.40;81.80;;;;;;5068532;28;20387;-79
2021/04/22 10:16:00;;;;;;;3.10;1.10;;;11.40;80.70;;;;;;5068510;28;20401;-78
2021/04/22 10:18:42;;;;;;;2.30;1.10;;;11.40;80.20;;;;;;5070259;28;20468;-78
2021/04/22 10:21:11;;;;;;;2.70;1.20;;;11.40;80.00;;;;;;5068411;28;20397;-78
2021/04/22 10:23:38;;;;;;;4.97;1.38;;;11.40;80.30;;;;;;5095387;28;20408;-78
2021/04/22 10:26:16;;;;;;;2.55;1.00;;;11.30;80.30;;;;;;5099256;28;20454;-78
2021/04/22 10:28:43;;;;;;;1.77;1.10;;;11.40;80.60;;;;;;5101652;28;20386;-78
2021/04/22 10:31:10;;;;;;;2.28;1.10;;;11.30;81.30;;;;;;5099605;28;20893;-78
2021/04/22 10:33:37;;;;;;;2.45;1.15;;;11.30;81.50;;;;;;5096678;28;20377;-78
2021/04/22 10:36:04;;;;;;;3.13;1.20;;;11.20;81.60;;;;;;5089020;28;20392;-78
2021/04/22 10:38:32;;;;;;;2.97;0.98;;;11.20;82.20;;;;;;5086736;28;20369;-78
2021/04/22 10:40:59;;;;;;;3.85;1.27;;;11.20;82.40;;;;;;5089064;28;20392;-78
2021/04/22 10:43:31;;;;;;;2.65;1.10;;;11.10;81.70;;;;;;5089284;28;20408;-78
2021/04/22 10:45:58;;;;;;;3.97;1.07;;;11.00;82.30;;;;;;5090960;28;20391;-78
2021/04/22 10:48:25;;;;;;;2.40;1.13;;;11.00;82.50;;;;;;5100809;28;20780;-78
2021/04/22 10:50:54;;;;;;;6.32;1.70;;;11.00;82.60;;;;;;5089320;28;20403;-78
2021/04/22 10:53:24;;;;;;;3.70;1.60;;;11.10;81.30;;;;;;5087985;28;20403;-78
2021/04/22 10:55:53;;;;;;;2.00;1.23;;;11.10;82.00;;;;;;5089543;28;20360;-79
2021/04/22 10:58:28;;;;;;;2.63;1.50;;;11.10;82.10;;;;;;5087741;28;20395;-78
2021/04/22 11:01:13;;;;;;;4.15;1.50;;;11.20;82.10;;;;;;5089320;28;20859;-79
2021/04/22 11:03:46;;;;;;;4.43;1.85;;;11.10;81.60;;;;;;5079785;28;20503;-78
2021/04/22 11:06:20;;;;;;;5.57;1.58;;;11.10;81.60;;;;;;5100335;28;20749;-78
2021/04/22 11:08:50;;;;;;;4.85;1.80;;;11.10;81.50;;;;;;5104344;28;20521;-79
2021/04/22 11:11:33;;;;;;;4.32;1.73;;;11.10;82.20;;;;;;5099932;28;20366;-79
2021/04/22 11:14:17;;;;;;;4.68;1.60;;;11.10;82.80;;;;;;5088810;28;20392;-79
2021/04/22 11:16:54;;;;;;;4.53;1.70;;;11.10;82.50;;;;;;5085580;28;20429;-79
2021/04/22 11:19:32;;;;;;;3.72;1.73;;;11.00;82.50;;;;;;5088198;28;20384;-79
2021/04/22 11:22:02;;;;;;;4.78;1.60;;;11.00;82.00;;;;;;5088376;28;20404;-78
2021/04/22 11:24:36;;;;;;;5.32;2.03;;;11.00;82.40;;;;;;5087100;28;20389;-78
2021/04/22 11:27:05;;;;;;;3.90;1.98;;;11.00;82.60;;;;;;5089014;28;20390;-78
2021/04/22 11:29:46;;;;;;;5.50;2.08;;;11.00;82.80;;;;;;5088523;28;20388;-79
2021/04/22 11:32:42;;;;;;;4.47;2.00;;;11.00;83.30;;;;;;5088542;28;20361;-78
2021/04/22 11:35:09;;;;;;;3.83;2.30;;;10.90;83.60;;;;;;5089071;28;20416;-78
2021/04/22 11:37:45;;;;;;;3.95;2.00;;;10.90;84.50;;;;;;5088794;28;20419;-78
2021/04/22 11:40:16;;;;;;;4.57;2.15;;;10.90;83.80;;;;;;5088927;28;20406;-78
2021/04/22 11:42:48;;;;;;;6.60;2.50;;;10.90;83.50;;;;;;5088006;28;20437;-79
2021/04/22 11:45:27;;;;;;;5.53;2.22;;;10.80;83.80;;;;;;5088259;28;20385;-79
2021/04/22 11:48:01;;;;;;;9.35;2.53;;;10.70;84.20;;;;;;5081214;28;20474;-80
2021/04/22 11:50:43;;;;;;;5.78;2.30;;;10.70;84.30;;;;;;5087776;28;20400;-79
2021/04/22 11:53:12;;;;;;;6.07;2.50;;;10.60;84.70;;;;;;5088511;28;20475;-80
2021/04/22 11:55:45;;;;;;;5.10;2.28;;;10.60;84.40;;;;;;5088961;28;20376;-79
2021/04/22 11:58:14;;;;;;;4.28;2.10;;;10.60;85.30;;;;;;5087008;28;21194;-79
2021/04/22 12:00:51;;;;;;;4.63;2.33;;;10.60;85.40;;;;;;5087373;28;20474;-79
2021/04/22 12:03:28;;;;;;;6.82;2.88;;;10.50;84.60;;;;;;5088194;28;20411;-78
2021/04/22 12:05:57;;;;;;;3.88;2.60;;;10.60;84.70;;;;;;5089619;28;20471;-78
2021/04/22 12:08:50;;;;;;;7.70;2.85;;;10.50;84.20;;;;;;5087088;28;20779;-79
2021/04/22 12:11:23;;;;;;;4.45;2.30;;;10.50;84.80;;;;;;5083130;28;20373;-79
2021/04/22 12:13:51;;;;;;;3.50;2.40;;;10.50;85.00;;;;;;5076818;28;20396;-79
2021/04/22 12:16:18;;;;;;;4.82;2.45;;;10.40;84.70;;;;;;5092917;28;20372;-79
2021/04/22 12:18:47;;;;;;;6.05;2.42;;;10.40;85.30;;;;;;5085898;28;20384;-79
2021/04/22 12:21:25;;;;;;;6.23;2.40;;;10.40;85.10;;;;;;5085100;28;20468;-78
2021/04/22 12:23:55;;;;;;;5.80;2.70;;;10.40;85.00;;;;;;5086835;28;20462;-79
2021/04/22 12:26:28;;;;;;;6.15;2.45;;;10.50;85.00;;;;;;5085585;28;20388;-80
2021/04/22 12:28:57;;;;;;;6.68;2.95;;;10.40;85.70;;;;;;5085275;28;20427;-79
2021/04/22 12:31:30;;;;;;;7.32;2.88;;;10.40;86.50;;;;;;5075237;28;20499;-79
2021/04/22 12:34:12;;;;;;;4.18;2.70;;;10.30;86.50;;;;;;5078364;28;20531;-80
2021/04/22 12:36:52;;;;;;;3.65;2.53;;;10.40;86.30;;;;;;5082040;28;20491;-79
2021/04/22 12:39:28;;;;;;;5.65;2.70;;;10.40;85.80;;;;;;5088008;28;20909;-78
2021/04/22 12:42:22;;;;;;;3.80;2.40;;;10.30;85.90;;;;;;5075792;28;21116;-78
2021/04/22 12:45:00;;;;;;;6.00;2.47;;;10.30;86.80;;;;;;5088618;28;20391;-79
2021/04/22 12:47:39;;;;;;;5.70;2.30;;;10.30;86.50;;;;;;5087498;28;20421;-78
2021/04/22 12:50:14;;;;;;;5.00;2.33;;;10.20;85.70;;;;;;5083318;28;20408;-79
2021/04/22 12:52:43;;;;;;;5.10;2.13;;;10.20;85.90;;;;;;5085724;28;20733;-78
2021/04/22 12:55:15;;;;;;;6.53;2.33;;;10.30;86.40;;;;;;5086418;28;20391;-78
2021/04/22 12:57:42;;;;;;;5.45;2.67;;;10.20;86.90;;;;;;5087761;28;20887;-78